createdAt,value
2016-11-17T00:00:42.628Z,993.27
2016-11-17T00:01:42.648Z,993.22
2016-11-17T00:02:42.663Z,993.19
2016-11-17T00:03:42.679Z,993.23
2016-11-17T00:04:42.700Z,993.21
2016-11-17T00:05:42.710Z,993.14
2016-11-17T00:06:42.726Z,993.14
2016-11-17T00:07:42.743Z,993.12
2016-11-17T00:08:42.763Z,993.06
2016-11-17T00:09:42.773Z,993.03
2016-11-17T00:10:42.791Z,993.04
2016-11-17T00:11:42.808Z,992.99
2016-11-17T00:12:42.823Z,993.06
2016-11-17T00:13:42.841Z,992.97
2016-11-17T00:14:42.854Z,992.93
2016-11-17T00:15:42.872Z,993.02
2016-11-17T00:16:42.889Z,992.99
2016-11-17T00:17:42.905Z,992.98
2016-11-17T00:18:42.924Z,993.01
2016-11-17T00:19:42.938Z,993.01
2016-11-17T00:20:42.953Z,993.04
2016-11-17T00:21:42.970Z,993.04
2016-11-17T00:22:42.987Z,993.07
2016-11-17T00:23:42.997Z,993.05
2016-11-17T00:24:43.019Z,993
2016-11-17T00:25:43.035Z,993.02
2016-11-17T00:26:43.051Z,992.98
2016-11-17T00:27:43.067Z,992.96
2016-11-17T00:28:43.082Z,993.04
2016-11-17T00:29:43.098Z,992.95
2016-11-17T00:30:43.115Z,993.04
2016-11-17T00:31:43.130Z,993
2016-11-17T00:32:43.146Z,992.99
2016-11-17T00:33:43.163Z,992.98
2016-11-17T00:34:43.179Z,992.96
2016-11-17T00:35:43.196Z,992.95
2016-11-17T00:36:43.213Z,992.92
2016-11-17T00:37:43.228Z,992.85
2016-11-17T00:38:43.247Z,992.86
2016-11-17T00:39:43.259Z,992.86
2016-11-17T00:40:43.274Z,992.85
2016-11-17T00:41:43.295Z,992.79
2016-11-17T00:42:43.306Z,992.82
2016-11-17T00:43:43.326Z,992.79
2016-11-17T00:44:43.342Z,992.81
2016-11-17T00:45:43.358Z,992.8
2016-11-17T00:46:43.371Z,992.75
2016-11-17T00:47:43.388Z,992.7
2016-11-17T00:48:43.411Z,992.77
2016-11-17T00:49:43.423Z,992.79
2016-11-17T00:50:43.435Z,992.82
2016-11-17T00:51:43.451Z,992.71
2016-11-17T00:52:43.476Z,992.79
2016-11-17T00:53:43.485Z,992.76
2016-11-17T00:54:43.503Z,992.73
2016-11-17T00:55:43.519Z,992.75
2016-11-17T00:56:43.537Z,992.79
2016-11-17T00:57:43.550Z,992.76
2016-11-17T00:58:43.567Z,992.77
2016-11-17T00:59:43.584Z,992.79
2016-11-17T01:00:43.597Z,992.81
2016-11-17T01:01:43.612Z,992.71
2016-11-17T01:02:43.630Z,992.72
2016-11-17T01:03:43.650Z,992.74
2016-11-17T01:04:43.663Z,992.67
2016-11-17T01:05:43.681Z,992.67
2016-11-17T01:06:43.693Z,992.67
2016-11-17T01:07:43.714Z,992.62
2016-11-17T01:08:43.729Z,992.65
2016-11-17T01:09:43.744Z,992.67
2016-11-17T01:10:43.763Z,992.68
2016-11-17T01:11:43.775Z,992.68
2016-11-17T01:12:43.791Z,992.66
2016-11-17T01:13:43.812Z,992.61
2016-11-17T01:14:43.827Z,992.63
2016-11-17T01:15:43.846Z,992.68
2016-11-17T01:16:43.860Z,992.7
2016-11-17T01:17:43.872Z,992.71
2016-11-17T01:18:43.889Z,992.67
2016-11-17T01:19:43.905Z,992.61
2016-11-17T01:20:43.926Z,992.65
2016-11-17T01:21:43.941Z,992.64
2016-11-17T01:22:43.953Z,992.64
2016-11-17T01:23:43.969Z,992.68
2016-11-17T01:24:43.990Z,992.62
2016-11-17T01:25:44.003Z,992.61
2016-11-17T01:26:44.021Z,992.54
2016-11-17T01:27:44.035Z,992.6
2016-11-17T01:28:44.052Z,992.55
2016-11-17T01:29:44.066Z,992.56
2016-11-17T01:30:44.083Z,992.55
2016-11-17T01:31:44.100Z,992.5
2016-11-17T01:32:44.121Z,992.52
2016-11-17T01:33:44.130Z,992.58
2016-11-17T01:34:44.148Z,992.54
2016-11-17T01:35:44.166Z,992.5
2016-11-17T01:36:44.182Z,992.45
2016-11-17T01:37:44.198Z,992.47
2016-11-17T01:38:44.214Z,992.45
2016-11-17T01:39:44.228Z,992.42
2016-11-17T01:40:44.248Z,992.45
2016-11-17T01:41:44.263Z,992.44
2016-11-17T01:42:44.280Z,992.41
2016-11-17T01:43:44.294Z,992.37
2016-11-17T01:44:44.313Z,992.4
2016-11-17T01:45:44.325Z,992.39
2016-11-17T01:46:44.342Z,992.37
2016-11-17T01:47:44.360Z,992.39
2016-11-17T01:48:44.378Z,992.32
2016-11-17T01:49:44.392Z,992.3
2016-11-17T01:50:44.408Z,992.32
2016-11-17T01:51:44.423Z,992.26
2016-11-17T01:52:44.438Z,992.31
2016-11-17T01:53:44.456Z,992.31
2016-11-17T01:54:44.473Z,992.25
2016-11-17T01:55:44.487Z,992.27
2016-11-17T01:56:44.503Z,992.27
2016-11-17T01:57:44.522Z,992.23
2016-11-17T01:58:44.534Z,992.26
2016-11-17T01:59:44.551Z,992.24
2016-11-17T02:00:44.569Z,992.26
2016-11-17T02:01:44.587Z,992.23
2016-11-17T02:02:44.599Z,992.2
2016-11-17T02:03:44.614Z,992.18
2016-11-17T02:04:44.630Z,992.17
2016-11-17T02:05:44.651Z,992.18
2016-11-17T02:06:44.665Z,992.13
2016-11-17T02:07:44.685Z,992.14
2016-11-17T02:08:44.699Z,992.13
2016-11-17T02:09:44.713Z,992.21
2016-11-17T02:10:44.729Z,992.16
2016-11-17T02:11:44.747Z,992.12
2016-11-17T02:12:44.766Z,992.13
2016-11-17T02:13:44.777Z,992.06
2016-11-17T02:14:44.791Z,992.06
2016-11-17T02:15:44.807Z,992.09
2016-11-17T02:16:44.828Z,992.09
2016-11-17T02:17:44.843Z,992.08
2016-11-17T02:18:44.859Z,992.02
2016-11-17T02:19:44.876Z,991.96
2016-11-17T02:20:44.891Z,991.95
2016-11-17T02:21:44.905Z,991.94
2016-11-17T02:22:44.926Z,991.95
2016-11-17T02:23:44.937Z,992.04
2016-11-17T02:24:44.950Z,992.01
2016-11-17T02:25:44.967Z,991.99
2016-11-17T02:26:44.988Z,992
2016-11-17T02:27:45.000Z,991.97
2016-11-17T02:28:45.015Z,991.97
2016-11-17T02:29:45.032Z,991.93
2016-11-17T02:30:45.050Z,991.96
2016-11-17T02:31:45.067Z,991.94
2016-11-17T02:32:45.080Z,991.94
2016-11-17T02:33:45.097Z,991.97
2016-11-17T02:34:45.115Z,991.98
2016-11-17T02:35:45.127Z,991.95
2016-11-17T02:36:45.148Z,991.95
2016-11-17T02:37:45.163Z,991.94
2016-11-17T02:38:45.175Z,991.89
2016-11-17T02:39:45.190Z,991.92
2016-11-17T02:40:45.207Z,991.91
2016-11-17T02:41:45.224Z,991.89
2016-11-17T02:42:45.239Z,991.88
2016-11-17T02:43:45.257Z,991.78
2016-11-17T02:44:45.271Z,991.81
2016-11-17T02:45:45.300Z,991.79
2016-11-17T02:46:45.303Z,991.77
2016-11-17T02:47:45.323Z,991.76
2016-11-17T02:48:45.335Z,991.72
2016-11-17T02:49:45.353Z,991.66
2016-11-17T02:50:45.368Z,991.65
2016-11-17T02:51:45.383Z,991.62
2016-11-17T02:52:45.403Z,991.62
2016-11-17T02:53:45.415Z,991.6
2016-11-17T02:54:45.430Z,991.59
2016-11-17T02:55:45.447Z,991.57
2016-11-17T02:56:45.466Z,991.55
2016-11-17T02:57:45.479Z,991.57
2016-11-17T02:58:45.498Z,991.58
2016-11-17T02:59:45.515Z,991.53
2016-11-17T03:00:45.529Z,991.53
2016-11-17T03:01:45.547Z,991.52
2016-11-17T03:02:45.558Z,991.55
2016-11-17T03:03:45.577Z,991.54
2016-11-17T03:04:45.593Z,991.52
2016-11-17T03:05:45.608Z,991.52
2016-11-17T03:06:45.625Z,991.61
2016-11-17T03:07:45.638Z,991.65
2016-11-17T03:08:45.658Z,991.67
2016-11-17T03:09:45.671Z,991.66
2016-11-17T03:10:45.687Z,991.71
2016-11-17T03:11:45.705Z,991.67
2016-11-17T03:12:45.718Z,991.72
2016-11-17T03:13:45.734Z,991.75
2016-11-17T03:14:45.753Z,991.73
2016-11-17T03:15:45.765Z,991.75
2016-11-17T03:16:45.781Z,991.74
2016-11-17T03:17:45.801Z,991.68
2016-11-17T03:18:45.818Z,991.67
2016-11-17T03:19:45.833Z,991.63
2016-11-17T03:20:45.844Z,991.63
2016-11-17T03:21:45.871Z,991.65
2016-11-17T03:22:45.881Z,991.64
2016-11-17T03:23:45.895Z,991.66
2016-11-17T03:24:45.912Z,991.57
2016-11-17T03:25:45.935Z,991.56
2016-11-17T03:26:45.944Z,991.52
2016-11-17T03:27:45.959Z,991.52
2016-11-17T03:28:45.979Z,991.43
2016-11-17T03:29:45.992Z,991.44
2016-11-17T03:30:46.010Z,991.41
2016-11-17T03:31:46.024Z,991.42
2016-11-17T03:32:46.043Z,991.39
2016-11-17T03:33:46.055Z,991.39
2016-11-17T03:34:46.074Z,991.39
2016-11-17T03:35:46.092Z,991.38
2016-11-17T03:36:46.105Z,991.34
2016-11-17T03:37:46.119Z,991.32
2016-11-17T03:38:46.134Z,991.26
2016-11-17T03:39:46.154Z,991.24
2016-11-17T03:40:46.171Z,991.21
2016-11-17T03:41:46.187Z,991.19
2016-11-17T03:42:46.206Z,991.16
2016-11-17T03:43:46.223Z,991.16
2016-11-17T03:44:46.234Z,991.21
2016-11-17T03:45:46.253Z,991.11
2016-11-17T03:46:46.269Z,991.17
2016-11-17T03:47:46.283Z,991.12
2016-11-17T03:48:46.303Z,991.09
2016-11-17T03:49:46.316Z,991.09
2016-11-17T03:50:46.333Z,991.04
2016-11-17T03:51:46.351Z,991.09
2016-11-17T03:52:46.368Z,991.04
2016-11-17T03:53:46.391Z,991.08
2016-11-17T03:54:46.400Z,991.06
2016-11-17T03:55:46.415Z,990.96
2016-11-17T03:56:46.431Z,990.98
2016-11-17T03:57:46.446Z,990.98
2016-11-17T03:58:46.464Z,990.96
2016-11-17T03:59:46.476Z,990.94
2016-11-17T04:01:46.512Z,990.92
2016-11-17T04:02:46.527Z,990.92
2016-11-17T04:03:46.544Z,990.95
2016-11-17T04:04:46.561Z,990.88
2016-11-17T04:05:46.574Z,990.86
2016-11-17T04:06:46.589Z,990.84
2016-11-17T04:07:46.610Z,990.82
2016-11-17T04:08:46.625Z,990.78
2016-11-17T04:09:46.653Z,990.82
2016-11-17T04:10:46.655Z,990.78
2016-11-17T04:11:46.674Z,990.77
2016-11-17T04:12:46.689Z,990.72
2016-11-17T04:13:46.707Z,990.71
2016-11-17T04:14:46.722Z,990.74
2016-11-17T04:15:46.737Z,990.72
2016-11-17T04:16:46.756Z,990.7
2016-11-17T04:17:46.779Z,990.71
2016-11-17T04:18:46.786Z,990.7
2016-11-17T04:19:46.804Z,990.72
2016-11-17T04:20:46.818Z,990.62
2016-11-17T04:21:46.843Z,990.63
2016-11-17T04:22:46.853Z,990.62
2016-11-17T04:23:46.875Z,990.6
2016-11-17T04:24:46.884Z,990.63
2016-11-17T04:25:46.902Z,990.56
2016-11-17T04:26:46.918Z,990.58
2016-11-17T04:27:46.936Z,990.56
2016-11-17T04:28:46.949Z,990.53
2016-11-17T04:29:46.967Z,990.51
2016-11-17T04:30:46.983Z,990.49
2016-11-17T04:31:46.996Z,990.48
2016-11-17T04:32:47.015Z,990.43
2016-11-17T04:33:47.032Z,990.43
2016-11-17T04:34:47.049Z,990.41
2016-11-17T04:35:47.063Z,990.41
2016-11-17T04:36:47.078Z,990.36
2016-11-17T04:37:47.103Z,990.35
2016-11-17T04:38:47.112Z,990.34
2016-11-17T04:39:47.125Z,990.27
2016-11-17T04:40:47.145Z,990.27
2016-11-17T04:41:47.173Z,990.25
2016-11-17T04:42:47.179Z,990.23
2016-11-17T04:43:47.192Z,990.23
2016-11-17T04:44:47.209Z,990.16
2016-11-17T04:45:47.226Z,990.14
2016-11-17T04:46:47.239Z,990.16
2016-11-17T04:47:47.258Z,990.13
2016-11-17T04:48:47.275Z,990.14
2016-11-17T04:49:47.296Z,990.14
2016-11-17T04:50:47.304Z,990.09
2016-11-17T04:51:47.324Z,990.09
2016-11-17T04:52:47.340Z,990.04
2016-11-17T04:53:47.352Z,990.01
2016-11-17T04:54:47.369Z,990.03
2016-11-17T04:55:47.395Z,990.04
2016-11-17T04:56:47.405Z,990.01
2016-11-17T04:57:47.415Z,989.99
2016-11-17T04:58:47.432Z,990.03
2016-11-17T04:59:47.450Z,990.05
2016-11-17T05:00:47.469Z,990.03
2016-11-17T05:01:47.491Z,990.04
2016-11-17T05:02:47.499Z,990.06
2016-11-17T05:03:47.523Z,990.06
2016-11-17T05:04:47.529Z,990.06
2016-11-17T05:05:47.549Z,990.05
2016-11-17T05:06:47.563Z,990.04
2016-11-17T05:07:47.578Z,990.07
2016-11-17T05:08:47.596Z,990.04
2016-11-17T05:09:47.610Z,990.03
2016-11-17T05:10:47.630Z,990.07
2016-11-17T05:11:47.645Z,990.04
2016-11-17T05:12:47.661Z,990.03
2016-11-17T05:13:47.689Z,990.03
2016-11-17T05:14:47.691Z,990
2016-11-17T05:15:47.709Z,989.96
2016-11-17T05:16:47.725Z,989.92
2016-11-17T05:17:47.739Z,989.89
2016-11-17T05:18:47.758Z,989.8
2016-11-17T05:19:47.774Z,989.83
2016-11-17T05:20:47.789Z,989.85
2016-11-17T05:21:47.815Z,989.79
2016-11-17T05:22:47.821Z,989.78
2016-11-17T05:23:47.836Z,989.77
2016-11-17T05:24:47.854Z,989.75
2016-11-17T05:25:47.872Z,989.72
2016-11-17T05:26:47.885Z,989.74
2016-11-17T05:27:47.901Z,989.65
2016-11-17T05:28:47.919Z,989.67
2016-11-17T05:29:47.934Z,989.67
2016-11-17T05:30:47.948Z,989.63
2016-11-17T05:31:47.969Z,989.59
2016-11-17T05:32:47.981Z,989.57
2016-11-17T05:33:47.999Z,989.59
2016-11-17T05:34:48.012Z,989.58
2016-11-17T05:35:48.031Z,989.53
2016-11-17T05:36:48.046Z,989.47
2016-11-17T05:37:48.064Z,989.5
2016-11-17T05:38:48.075Z,989.51
2016-11-17T05:39:48.095Z,989.47
2016-11-17T05:40:48.112Z,989.44
2016-11-17T05:41:48.139Z,989.46
2016-11-17T05:42:48.147Z,989.44
2016-11-17T05:43:48.159Z,989.5
2016-11-17T05:44:48.177Z,989.49
2016-11-17T05:45:48.190Z,989.45
2016-11-17T05:46:48.208Z,989.44
2016-11-17T05:47:48.224Z,989.42
2016-11-17T05:48:48.237Z,989.42
2016-11-17T05:49:48.257Z,989.44
2016-11-17T05:50:48.271Z,989.39
2016-11-17T05:51:48.292Z,989.33
2016-11-17T05:52:48.301Z,989.41
2016-11-17T05:53:48.322Z,989.39
2016-11-17T05:54:48.336Z,989.44
2016-11-17T05:55:48.352Z,989.41
2016-11-17T05:56:48.364Z,989.39
2016-11-17T05:57:48.386Z,989.34
2016-11-17T05:58:48.399Z,989.34
2016-11-17T05:59:48.415Z,989.41
2016-11-17T06:00:48.431Z,989.48
2016-11-17T06:01:48.448Z,989.39
2016-11-17T06:02:48.466Z,989.37
2016-11-17T06:03:48.476Z,989.35
2016-11-17T06:04:48.497Z,989.39
2016-11-17T06:05:48.512Z,989.33
2016-11-17T06:06:48.531Z,989.33
2016-11-17T06:07:48.545Z,989.31
2016-11-17T06:08:48.557Z,989.32
2016-11-17T06:09:48.577Z,989.29
2016-11-17T06:10:48.592Z,989.3
2016-11-17T06:11:48.610Z,989.33
2016-11-17T06:12:48.621Z,989.36
2016-11-17T06:13:48.638Z,989.37
2016-11-17T06:14:48.655Z,989.4
2016-11-17T06:15:48.672Z,989.38
2016-11-17T06:16:48.690Z,989.36
2016-11-17T06:17:48.703Z,989.34
2016-11-17T06:18:48.718Z,989.29
2016-11-17T06:19:48.737Z,989.26
2016-11-17T06:20:48.750Z,989.23
2016-11-17T06:21:48.768Z,989.17
2016-11-17T06:22:48.784Z,989.24
2016-11-17T06:23:48.799Z,989.18
2016-11-17T06:24:48.813Z,989.19
2016-11-17T06:25:48.833Z,989.16
2016-11-17T06:26:48.847Z,989.23
2016-11-17T06:27:48.865Z,989.3
2016-11-17T06:28:48.882Z,989.25
2016-11-17T06:29:48.907Z,989.25
2016-11-17T06:30:48.914Z,989.24
2016-11-17T06:31:48.939Z,989.28
2016-11-17T06:32:48.942Z,989.25
2016-11-17T06:33:48.967Z,989.2
2016-11-17T06:34:48.977Z,989.29
2016-11-17T06:35:48.994Z,989.26
2016-11-17T06:36:49.007Z,989.33
2016-11-17T06:37:49.023Z,989.33
2016-11-17T06:38:49.038Z,989.38
2016-11-17T06:39:49.063Z,989.36
2016-11-17T06:40:49.073Z,989.4
2016-11-17T06:41:49.087Z,989.34
2016-11-17T06:42:49.102Z,989.33
2016-11-17T06:43:49.120Z,989.38
2016-11-17T06:44:49.139Z,989.41
2016-11-17T06:45:49.151Z,989.43
2016-11-17T06:46:49.168Z,989.5
2016-11-17T06:47:49.186Z,989.43
2016-11-17T06:48:49.199Z,989.46
2016-11-17T06:49:49.215Z,989.5
2016-11-17T06:50:49.232Z,989.55
2016-11-17T06:51:49.255Z,989.61
2016-11-17T06:52:49.263Z,989.64
2016-11-17T06:53:49.287Z,989.7
2016-11-17T06:54:49.293Z,989.62
2016-11-17T06:55:49.313Z,989.69
2016-11-17T06:56:49.328Z,989.6
2016-11-17T06:57:49.341Z,989.62
2016-11-17T06:58:49.356Z,989.65
2016-11-17T06:59:49.383Z,989.71
2016-11-17T07:00:49.386Z,989.65
2016-11-17T07:01:49.407Z,989.67
2016-11-17T07:02:49.419Z,989.66
2016-11-17T07:03:49.447Z,989.53
2016-11-17T07:04:49.453Z,989.74
2016-11-17T07:05:49.466Z,989.72
2016-11-17T07:06:49.483Z,989.7
2016-11-17T07:07:49.508Z,989.74
2016-11-17T07:08:49.514Z,989.74
2016-11-17T07:09:49.529Z,989.78
2016-11-17T07:10:49.542Z,989.76
2016-11-17T07:11:49.561Z,989.75
2016-11-17T07:12:49.572Z,989.75
2016-11-17T07:13:49.589Z,989.73
2016-11-17T07:14:49.609Z,989.72
2016-11-17T07:15:49.625Z,989.71
2016-11-17T07:16:49.638Z,989.73
2016-11-17T07:17:49.663Z,989.71
2016-11-17T07:18:49.671Z,989.71
2016-11-17T07:19:49.684Z,989.74
2016-11-17T07:20:49.701Z,989.76
2016-11-17T07:21:49.727Z,989.72
2016-11-17T07:22:49.733Z,989.68
2016-11-17T07:23:49.751Z,989.74
2016-11-17T07:24:49.765Z,989.75
2016-11-17T07:25:49.779Z,989.74
2016-11-17T07:26:49.794Z,989.79
2016-11-17T07:27:49.811Z,989.77
2016-11-17T07:28:49.828Z,989.83
2016-11-17T07:29:49.842Z,989.81
2016-11-17T07:30:49.858Z,989.84
2016-11-17T07:31:49.882Z,989.86
2016-11-17T07:32:49.889Z,989.89
2016-11-17T07:33:49.907Z,989.83
2016-11-17T07:34:49.920Z,989.87
2016-11-17T07:35:49.937Z,989.89
2016-11-17T07:36:49.951Z,989.89
2016-11-17T07:37:49.970Z,989.95
2016-11-17T07:38:49.981Z,989.96
2016-11-17T07:39:50.001Z,989.97
2016-11-17T07:40:50.015Z,990
2016-11-17T07:41:50.039Z,990
2016-11-17T07:42:50.044Z,990.06
2016-11-17T07:43:50.060Z,990.05
2016-11-17T07:44:50.076Z,990.06
2016-11-17T07:45:50.099Z,990.06
2016-11-17T07:46:50.108Z,990.08
2016-11-17T07:47:50.124Z,990.05
2016-11-17T07:48:50.138Z,990.12
2016-11-17T07:49:50.158Z,990.12
2016-11-17T07:50:50.171Z,990.12
2016-11-17T07:51:50.188Z,990.18
2016-11-17T07:52:50.199Z,990.13
2016-11-17T07:53:50.219Z,990.12
2016-11-17T07:54:50.236Z,990.09
2016-11-17T07:55:50.255Z,990.15
2016-11-17T07:56:50.270Z,990.08
2016-11-17T07:57:50.283Z,990.11
2016-11-17T07:58:50.296Z,990.1
2016-11-17T07:59:50.313Z,990.12
2016-11-17T08:00:50.330Z,990.12
2016-11-17T08:01:50.355Z,990.07
2016-11-17T08:02:50.360Z,990.08
2016-11-17T08:03:50.375Z,990.13
2016-11-17T08:04:50.395Z,990.1
2016-11-17T08:05:50.418Z,990.09
2016-11-17T08:06:50.426Z,990.07
2016-11-17T08:07:50.442Z,990.12
2016-11-17T08:08:50.459Z,990.1
2016-11-17T08:09:50.479Z,990.07
2016-11-17T08:10:50.488Z,990.09
2016-11-17T08:11:50.511Z,990.14
2016-11-17T08:12:50.521Z,990.14
2016-11-17T08:13:50.539Z,990.1
2016-11-17T08:14:50.554Z,990.07
2016-11-17T08:15:50.569Z,990.07
2016-11-17T08:16:50.583Z,990.05
2016-11-17T08:17:50.611Z,990.06
2016-11-17T08:18:50.614Z,990.02
2016-11-17T08:19:50.633Z,989.99
2016-11-17T08:20:50.647Z,989.97
2016-11-17T08:21:50.668Z,989.95
2016-11-17T08:22:50.681Z,989.94
2016-11-17T08:23:50.700Z,989.89
2016-11-17T08:24:50.719Z,989.88
2016-11-17T08:25:50.730Z,989.88
2016-11-17T08:26:50.745Z,989.91
2016-11-17T08:27:50.764Z,989.89
2016-11-17T08:28:50.783Z,989.93
2016-11-17T08:29:50.793Z,989.9
2016-11-17T08:30:50.811Z,989.93
2016-11-17T08:31:50.826Z,989.94
2016-11-17T08:32:50.843Z,989.92
2016-11-17T08:33:50.864Z,989.88
2016-11-17T08:34:50.876Z,989.84
2016-11-17T08:35:50.899Z,989.84
2016-11-17T08:36:50.909Z,989.83
2016-11-17T08:37:50.928Z,989.8
2016-11-17T08:38:50.944Z,989.79
2016-11-17T08:39:50.961Z,989.85
2016-11-17T08:40:50.972Z,989.86
2016-11-17T08:41:50.987Z,989.88
2016-11-17T08:42:51.003Z,989.91
2016-11-17T08:43:51.031Z,989.97
2016-11-17T08:44:51.037Z,989.93
2016-11-17T08:45:51.050Z,989.96
2016-11-17T08:46:51.068Z,990.01
2016-11-17T08:47:51.083Z,989.88
2016-11-17T08:48:51.102Z,989.85
2016-11-17T08:49:51.117Z,989.83
2016-11-17T08:50:51.129Z,989.85
2016-11-17T08:51:51.148Z,989.85
2016-11-17T08:52:51.165Z,989.84
2016-11-17T08:53:51.183Z,989.88
2016-11-17T08:54:51.198Z,989.89
2016-11-17T08:55:51.212Z,989.92
2016-11-17T08:56:51.225Z,989.91
2016-11-17T08:57:51.242Z,989.85
2016-11-17T08:58:51.257Z,989.9
2016-11-17T08:59:51.276Z,989.87
2016-11-17T09:00:51.290Z,989.8
2016-11-17T09:01:51.308Z,989.87
2016-11-17T09:02:51.320Z,989.86
2016-11-17T09:03:51.343Z,989.87
2016-11-17T09:04:51.353Z,989.87
2016-11-17T09:05:51.372Z,989.84
2016-11-17T09:06:51.384Z,989.76
2016-11-17T09:07:51.401Z,989.82
2016-11-17T09:08:51.419Z,989.8
2016-11-17T09:09:51.439Z,989.85
2016-11-17T09:10:51.444Z,989.78
2016-11-17T09:11:51.464Z,989.85
2016-11-17T09:12:51.479Z,989.86
2016-11-17T09:13:51.495Z,989.81
2016-11-17T09:14:51.509Z,989.86
2016-11-17T09:15:51.524Z,989.82
2016-11-17T09:16:51.544Z,989.78
2016-11-17T09:17:51.561Z,989.75
2016-11-17T09:18:51.572Z,989.75
2016-11-17T09:19:51.592Z,989.74
2016-11-17T09:20:51.606Z,989.77
2016-11-17T09:21:51.623Z,989.78
2016-11-17T09:22:51.640Z,989.75
2016-11-17T09:23:51.656Z,989.83
2016-11-17T09:24:51.672Z,989.73
2016-11-17T09:25:51.687Z,989.78
2016-11-17T09:26:51.707Z,989.79
2016-11-17T09:27:51.731Z,989.75
2016-11-17T09:28:51.736Z,989.7
2016-11-17T09:29:51.753Z,989.77
2016-11-17T09:30:51.771Z,989.72
2016-11-17T09:31:51.795Z,989.76
2016-11-17T09:32:51.803Z,989.79
2016-11-17T09:33:51.816Z,989.78
2016-11-17T09:34:51.835Z,989.75
2016-11-17T09:35:51.850Z,989.8
2016-11-17T09:36:51.868Z,989.84
2016-11-17T09:37:51.885Z,989.81
2016-11-17T09:38:51.900Z,989.78
2016-11-17T09:39:51.911Z,989.75
2016-11-17T09:40:51.929Z,989.81
2016-11-17T09:41:51.949Z,989.84
2016-11-17T09:42:51.964Z,989.82
2016-11-17T09:43:51.977Z,989.79
2016-11-17T09:44:51.992Z,989.87
2016-11-17T09:45:52.009Z,989.77
2016-11-17T09:46:52.026Z,989.85
2016-11-17T09:47:52.044Z,989.78
2016-11-17T09:48:52.061Z,989.77
2016-11-17T09:49:52.077Z,989.77
2016-11-17T09:50:52.093Z,989.79
2016-11-17T09:51:52.110Z,989.76
2016-11-17T09:52:52.124Z,989.77
2016-11-17T09:53:52.144Z,989.7
2016-11-17T09:54:52.159Z,989.77
2016-11-17T09:55:52.183Z,989.77
2016-11-17T09:56:52.194Z,989.74
2016-11-17T09:57:52.209Z,989.7
2016-11-17T09:58:52.225Z,989.66
2016-11-17T09:59:52.242Z,989.75
2016-11-17T10:00:52.256Z,989.78
2016-11-17T10:01:52.272Z,989.83
2016-11-17T10:02:52.291Z,989.78
2016-11-17T10:03:52.310Z,989.81
2016-11-17T10:04:52.327Z,989.83
2016-11-17T10:05:52.342Z,989.81
2016-11-17T10:06:52.358Z,989.75
2016-11-17T10:07:52.377Z,989.72
2016-11-17T10:08:52.389Z,989.67
2016-11-17T10:09:52.404Z,989.72
2016-11-17T10:10:52.421Z,989.81
2016-11-17T10:11:52.439Z,989.78
2016-11-17T10:12:52.456Z,989.79
2016-11-17T10:13:52.479Z,989.77
2016-11-17T10:14:52.490Z,989.77
2016-11-17T10:15:52.506Z,989.72
2016-11-17T10:16:52.524Z,989.74
2016-11-17T10:17:52.543Z,989.7
2016-11-17T10:18:52.560Z,989.7
2016-11-17T10:19:52.578Z,989.67
2016-11-17T10:20:52.597Z,989.7
2016-11-17T10:21:52.608Z,989.63
2016-11-17T10:22:52.627Z,989.62
2016-11-17T10:23:52.643Z,989.55
2016-11-17T10:24:52.661Z,989.61
2016-11-17T10:25:52.679Z,989.54
2016-11-17T10:26:52.689Z,989.53
2016-11-17T10:27:52.715Z,989.52
2016-11-17T10:28:52.729Z,989.5
2016-11-17T10:29:52.744Z,989.47
2016-11-17T10:30:52.759Z,989.44
2016-11-17T10:31:52.775Z,989.52
2016-11-17T10:32:52.796Z,989.56
2016-11-17T10:33:52.810Z,989.48
2016-11-17T10:34:52.829Z,989.56
2016-11-17T10:35:52.845Z,989.52
2016-11-17T10:36:52.858Z,989.51
2016-11-17T10:37:52.876Z,989.45
2016-11-17T10:38:52.893Z,989.39
2016-11-17T10:39:52.910Z,989.37
2016-11-17T10:40:52.926Z,989.33
2016-11-17T10:41:52.948Z,989.3
2016-11-17T10:42:52.962Z,989.35
2016-11-17T10:43:52.980Z,989.32
2016-11-17T10:44:52.994Z,989.36
2016-11-17T10:45:53.011Z,989.33
2016-11-17T10:46:53.030Z,989.3
2016-11-17T10:47:53.045Z,989.34
2016-11-17T10:48:53.059Z,989.3
2016-11-17T10:49:53.075Z,989.27
2016-11-17T10:50:53.092Z,989.3
2016-11-17T10:51:53.113Z,989.36
2016-11-17T10:52:53.132Z,989.34
2016-11-17T10:53:53.143Z,989.45
2016-11-17T10:54:53.160Z,989.39
2016-11-17T10:55:53.180Z,989.39
2016-11-17T10:56:53.190Z,989.33
2016-11-17T10:57:53.207Z,989.29
2016-11-17T10:58:53.224Z,989.25
2016-11-17T10:59:53.243Z,989.35
2016-11-17T11:00:53.261Z,989.33
2016-11-17T11:01:53.275Z,989.31
2016-11-17T11:02:53.292Z,989.36
2016-11-17T11:03:53.309Z,989.26
2016-11-17T11:04:53.325Z,989.27
2016-11-17T11:05:53.346Z,989.18
2016-11-17T11:06:53.359Z,989.11
2016-11-17T11:07:53.372Z,989.23
2016-11-17T11:08:53.392Z,989.21
2016-11-17T11:09:53.414Z,989.18
2016-11-17T11:10:53.427Z,989.18
2016-11-17T11:11:53.440Z,989.09
2016-11-17T11:12:53.458Z,989.11
2016-11-17T11:13:53.476Z,989.06
2016-11-17T11:14:53.489Z,989.06
2016-11-17T11:15:53.508Z,989.11
2016-11-17T11:16:53.525Z,989.13
2016-11-17T11:17:53.539Z,989.06
2016-11-17T11:18:53.556Z,989.04
2016-11-17T11:19:53.576Z,989.05
2016-11-17T11:20:53.587Z,989.15
2016-11-17T11:21:53.604Z,989.09
2016-11-17T11:22:53.619Z,989.08
2016-11-17T11:23:53.640Z,989.03
2016-11-17T11:24:53.653Z,988.99
2016-11-17T11:25:53.668Z,989.05
2016-11-17T11:26:53.684Z,988.98
2016-11-17T11:27:53.701Z,989.02
2016-11-17T11:28:53.719Z,988.96
2016-11-17T11:29:53.734Z,988.92
2016-11-17T11:30:53.747Z,988.9
2016-11-17T11:31:53.771Z,988.84
2016-11-17T11:32:53.785Z,988.97
2016-11-17T11:33:53.800Z,988.91
2016-11-17T11:34:53.811Z,988.9
2016-11-17T11:35:53.828Z,988.94
2016-11-17T11:36:53.846Z,988.87
2016-11-17T11:37:53.863Z,988.83
2016-11-17T11:38:53.878Z,988.81
2016-11-17T11:39:53.892Z,988.78
2016-11-17T11:40:53.911Z,988.73
2016-11-17T11:41:53.927Z,988.75
2016-11-17T11:42:53.946Z,988.72
2016-11-17T11:43:53.955Z,988.78
2016-11-17T11:44:53.975Z,988.79
2016-11-17T11:45:53.992Z,988.67
2016-11-17T11:46:54.007Z,988.65
2016-11-17T11:47:54.024Z,988.63
2016-11-17T11:48:54.039Z,988.4
2016-11-17T11:49:54.056Z,988.38
2016-11-17T11:50:54.074Z,988.46
2016-11-17T11:51:54.087Z,988.49
2016-11-17T11:52:54.103Z,988.53
2016-11-17T11:53:54.121Z,988.56
2016-11-17T11:54:54.136Z,988.56
2016-11-17T11:55:54.155Z,988.63
2016-11-17T11:56:54.171Z,988.6
2016-11-17T11:57:54.184Z,988.5
2016-11-17T11:58:54.202Z,988.37
2016-11-17T11:59:54.219Z,988.37
2016-11-17T12:00:54.232Z,988.36
2016-11-17T12:01:54.249Z,988.33
2016-11-17T12:02:54.306Z,988.37
2016-11-17T12:03:54.282Z,988.39
2016-11-17T12:04:54.341Z,988.35
2016-11-17T12:05:54.315Z,988.36
2016-11-17T12:06:54.329Z,988.27
2016-11-17T12:07:54.398Z,988.24
2016-11-17T12:08:54.404Z,988.24
2016-11-17T12:09:54.378Z,988.19
2016-11-17T12:10:54.405Z,988.21
2016-11-17T12:11:54.413Z,988.28
2016-11-17T12:12:54.430Z,988.26
2016-11-17T12:13:54.445Z,988.21
2016-11-17T12:14:54.459Z,988.19
2016-11-17T12:15:54.475Z,988.21
2016-11-17T12:16:54.493Z,988.2
2016-11-17T12:17:54.510Z,988.2
2016-11-17T12:18:54.527Z,988.22
2016-11-17T12:19:54.547Z,988.31
2016-11-17T12:20:54.560Z,988.3
2016-11-17T12:21:54.574Z,988.38
2016-11-17T12:22:54.594Z,988.36
2016-11-17T12:23:54.607Z,988.41
2016-11-17T12:24:54.625Z,988.37
2016-11-17T12:25:54.750Z,988.37
2016-11-17T12:26:54.665Z,988.25
2016-11-17T12:27:54.679Z,988.27
2016-11-17T12:28:54.693Z,988.3
2016-11-17T12:29:54.710Z,988.29
2016-11-17T12:30:54.725Z,988.25
2016-11-17T12:31:54.740Z,988.34